메인 페이지
METAR-TAF:

METAR-TAF

공항 :

리야드, 사우디아라비아

위도: 24-43N, 경도: 046-44E, 고도: 635m

현재 날씨관측

예보는 15분 전, 09:00시(UTC)에 발표되었습니다.
동남동9kt
온도 19°C
습도 49%
기압 1018 hPa
시정: 5000m
고도 4000ft 상공 흐림

METAR: OERY 090900Z 12009KT 5000 OVC040 19/08 Q1018

시각: 12:15 (09:15 UTC)

예보

예보는 10 시간 15분 전, 23:00시(UTC)에 발표되었습니다.
예보 대상 시간: 09일 00시부터 10일 06시까지 (UTC)
여러 방향의 바람 3kt
시정: 7000m
고도 4000ft 상공 구름 조금
일시적
09일 00시부터 09일 05시까지 (UTC)
시정: 4000m
박무
전환 중
09일 06시부터 09일 08시까지 (UTC)
15kt
시정: 6000m
고도 4000ft 상공 구름 보통
일시적
09일 09시부터 09일 23시까지 (UTC)
시정: 5000m
고도 3500ft 상공 구름 조금, 적란운.
고도 4000ft 상공 구름 많음
뇌우, 비

TAF: OERY 082300Z 0900/1006 VRB03KT 7000 FEW040 TEMPO 0900/0905 4000 BR BECMG 0906/0908 09015KT 6000 SCT040 TEMPO 0909/0923 5000 TSRA FEW035CB BKN040

4,000개 이상의 공항 관측 자료 및 예보 (METAR 및 TAF 보고).

지도상에서 검색 가능한 기상관측소가 노란 점과 빨간 점으로 표시되어 있습니다.

기상관측소 명을 보려면 표시 위로 마우스를 이동하세요.

날씨 관측과 예보를 보려면 클릭하세요.

지도 변경 : 확대하려면 엑스 표시가 있는 녹색 버튼, 축소하려면 빼기 표시가 있는 녹색 버튼, 다음 페이지의 지도를 보려면 녹색 화살표를 클릭하세요.


METAR-TAF: